Time,TemperatureF,DewpointF,PressureIn,WindDirection,WindDirectionDegrees,WindSpeedMPH,WindSpeedGustMPH,Humidity,HourlyPrecipIn,Conditions,Clouds,dailyrainin,SolarRadiationWatts/m^2,SoftwareType,DateUTC
2013-03-27 00:00:00,32.5,25.8,30.19,SW,221,3.5,3.5,76,0.00,RA,OVC,0.00,0.0,WeatherDisplay:10.37,2013-03-27 00:00:00,
2013-03-27 00:05:00,32.8,26.1,30.19,West,271,1.0,0.0,76,0.00,RA,OVC,0.00,0.0,WeatherDisplay:10.37,2013-03-27 00:05:00,
2013-03-27 00:10:00,32.9,26.5,30.19,SSE,167,1.2,1.2,77,0.00,BKN,OVC,0.00,0.0,WeatherDisplay:10.37,2013-03-27 00:10:00,
2013-03-27 00:15:00,33.1,27.0,30.19,NNW,340,1.2,1.2,78,0.00,BKN,OVC,0.00,0.0,WeatherDisplay:10.37,2013-03-27 00:15:00,
2013-03-27 00:20:00,33.2,27.4,30.19,ENE,60,2.3,2.3,79,0.00,BKN,OVC,0.00,0.0,WeatherDisplay:10.37,2013-03-27 00:20:00,
2013-03-27 00:25:00,33.3,27.8,30.19,WNW,301,2.3,2.3,80,0.00,BKN,OVC,0.00,0.0,WeatherDisplay:10.37,2013-03-27 00:25:00,
2013-03-27 00:30:00,33.3,27.8,30.19,WSW,256,1.2,1.2,80,0.00,BKN,OVC,0.00,0.0,WeatherDisplay:10.37,2013-03-27 00:30:00,
2013-03-27 00:35:00,33.3,28.1,30.19,WSW,238,1.2,1.2,81,0.00,CLR,OVC,0.00,0.0,WeatherDisplay:10.37,2013-03-27 00:35:00,
2013-03-27 00:40:00,33.3,28.1,30.19,WSW,255,1.2,1.2,81,0.00,CLR,OVC,0.00,0.0,WeatherDisplay:10.37,2013-03-27 00:40:00,
2013-03-27 00:45:00,33.5,28.3,30.19,SW,225,3.5,3.5,81,0.00,CLR,OVC,0.00,0.0,WeatherDisplay:10.37,2013-03-27 00:45:00,
2013-03-27 00:50:00,33.5,28.3,30.19,WSW,257,1.2,0.0,81,0.00,CLR,OVC,0.00,0.0,WeatherDisplay:10.37,2013-03-27 00:50:00,
2013-03-27 00:55:00,33.3,28.1,30.19,ESE,121,1.2,1.2,81,0.00,CLR,OVC,0.00,0.0,WeatherDisplay:10.37,2013-03-27 00:55:00,
2013-03-27 01:00:00,33.2,28.0,30.18,SE,129,1.2,1.2,81,0.00,CLR,OVC,0.00,0.0,WeatherDisplay:10.37,2013-03-27 01:00:00,
2013-03-27 01:05:00,33.2,28.0,30.19,NW,310,1.2,1.2,81,0.00,BKN,OVC,0.00,0.0,WeatherDisplay:10.37,2013-03-27 01:05:00,
2013-03-27 01:10:00,33.2,28.0,30.18,West,266,1.2,1.2,81,0.00,BKN,OVC,0.00,0.0,WeatherDisplay:10.37,2013-03-27 01:10:00,
2013-03-27 01:15:00,33.2,27.7,30.19,SSW,204,2.0,2.0,80,0.00,BKN,OVC,0.00,0.0,WeatherDisplay:10.37,2013-03-27 01:15:00,
2013-03-27 01:20:00,33.2,28.0,30.18,NNW,328,1.2,1.2,81,0.00,BKN,OVC,0.00,0.0,WeatherDisplay:10.37,2013-03-27 01:20:00,
2013-03-27 01:25:00,33.1,28.2,30.19,East,86,3.5,3.5,82,0.00,BKN,OVC,0.00,0.0,WeatherDisplay:10.37,2013-03-27 01:25:00,
2013-03-27 01:30:00,33.0,28.1,30.19,West,262,1.2,1.2,82,0.00,BKN,OVC,0.00,0.0,WeatherDisplay:10.37,2013-03-27 01:30:00,
2013-03-27 01:35:00,32.9,28.6,30.18,SE,142,0.0,0.0,84,0.00,BKN,OVC,0.00,0.0,WeatherDisplay:10.37,2013-03-27 01:35:00,
2013-03-27 01:40:00,32.7,28.7,30.18,SSW,208,1.2,1.2,85,0.00,BKN,OVC,0.00,0.0,WeatherDisplay:10.37,2013-03-27 01:40:00,
2013-03-27 01:45:00,32.4,28.4,30.18,WNW,285,0.0,0.0,85,0.00,BKN,OVC,0.00,0.0,WeatherDisplay:10.37,2013-03-27 01:45:00,
2013-03-27 01:50:00,32.2,28.2,30.18,SE,134,1.2,0.0,85,0.00,BKN,OVC,0.00,0.0,WeatherDisplay:10.37,2013-03-27 01:50:00,
2013-03-27 01:55:00,31.9,27.9,30.18,SE,136,0.0,0.1,85,0.00,BKN,OVC,0.00,0.0,WeatherDisplay:10.37,2013-03-27 01:55:00,
2013-03-27 02:01:00,31.6,27.6,30.18,SSE,149,1.2,0.0,85,0.00,BKN,OVC,0.00,0.0,WeatherDisplay:10.37,2013-03-27 02:01:00,
2013-03-27 02:06:00,31.6,27.6,30.17,West,271,1.2,0.0,85,0.00,-SN,OVC,0.00,0.0,WeatherDisplay:10.37,2013-03-27 02:06:00,
2013-03-27 02:11:00,31.5,27.5,30.17,SW,221,0.0,0.0,85,0.00,-SN,OVC,0.00,0.0,WeatherDisplay:10.37,2013-03-27 02:11:00,
2013-03-27 02:16:00,31.7,27.7,30.17,SE,125,1.2,0.0,85,0.00,-SN,OVC,0.00,0.0,WeatherDisplay:10.37,2013-03-27 02:16:00,
2013-03-27 02:21:00,31.9,27.9,30.17,SE,139,2.3,2.3,85,0.00,-SN,OVC,0.00,0.0,WeatherDisplay:10.37,2013-03-27 02:21:00,
2013-03-27 02:26:00,32.0,27.7,30.17,SE,129,1.2,1.2,84,0.00,-SN,OVC,0.00,0.0,WeatherDisplay:10.37,2013-03-27 02:26:00,
2013-03-27 02:31:00,32.1,27.8,30.17,SE,132,0.0,0.0,84,0.00,SCT,OVC,0.00,0.0,WeatherDisplay:10.37,2013-03-27 02:31:00,
2013-03-27 02:36:00,32.1,27.8,30.17,SE,139,0.0,0.0,84,0.00,SCT,OVC,0.00,0.0,WeatherDisplay:10.37,2013-03-27 02:36:00,
2013-03-27 02:41:00,32.1,28.1,30.17,SSE,159,0.0,0.0,85,0.00,SCT,OVC,0.00,0.0,WeatherDisplay:10.37,2013-03-27 02:41:00,
2013-03-27 02:46:00,32.2,28.2,30.17,West,280,0.0,0.0,85,0.00,SCT,OVC,0.00,0.0,WeatherDisplay:10.37,2013-03-27 02:46:00,
2013-03-27 02:51:00,32.3,28.6,30.17,SW,233,1.2,1.2,86,0.00,SCT,OVC,0.00,0.0,WeatherDisplay:10.37,2013-03-27 02:51:00,
2013-03-27 02:56:00,32.3,28.6,30.17,NW,314,0.0,0.0,86,0.00,SCT,OVC,0.00,0.0,WeatherDisplay:10.37,2013-03-27 02:56:00,
2013-03-27 03:01:00,32.3,28.9,30.16,WNW,295,1.0,0.0,87,0.00,SCT,OVC,0.00,0.0,WeatherDisplay:10.37,2013-03-27 03:01:00,
2013-03-27 03:06:00,32.2,29.0,30.16,WSW,239,1.2,1.2,88,0.00,-SN,OVC,0.00,0.0,WeatherDisplay:10.37,2013-03-27 03:06:00,
2013-03-27 03:11:00,32.1,29.2,30.16,NW,311,0.0,0.0,89,0.00,-SN,OVC,0.00,0.0,WeatherDisplay:10.37,2013-03-27 03:11:00,
2013-03-27 03:16:00,32.1,29.5,30.16,West,269,1.2,0.0,90,0.00,-SN,OVC,0.00,0.0,WeatherDisplay:10.37,2013-03-27 03:16:00,
2013-03-27 03:21:00,32.0,29.1,30.16,WSW,245,0.0,0.0,89,0.00,-SN,OVC,0.00,0.0,WeatherDisplay:10.37,2013-03-27 03:21:00,
2013-03-27 03:26:00,32.0,29.1,30.16,WSW,251,1.2,0.0,89,0.00,-SN,OVC,0.00,0.0,WeatherDisplay:10.37,2013-03-27 03:26:00,
2013-03-27 03:32:00,32.0,28.8,30.16,North,355,1.2,1.2,88,0.00,-SN,OVC,0.00,0.0,WeatherDisplay:10.37,2013-03-27 03:32:00,
2013-03-27 03:37:00,32.1,28.9,30.16,WNW,283,2.3,2.3,88,0.00,-SN,OVC,0.00,0.0,WeatherDisplay:10.37,2013-03-27 03:37:00,
2013-03-27 03:42:00,32.1,28.7,30.16,SSE,149,0.0,0.0,87,0.00,-SN,OVC,0.00,0.0,WeatherDisplay:10.37,2013-03-27 03:42:00,
2013-03-27 03:47:00,32.1,28.4,30.16,SE,129,0.0,0.0,86,0.00,BKN,OVC,0.00,0.0,WeatherDisplay:10.37,2013-03-27 03:47:00,
2013-03-27 03:52:00,32.0,28.0,30.15,SE,129,2.3,2.3,85,0.00,BKN,OVC,0.00,0.0,WeatherDisplay:10.37,2013-03-27 03:52:00,
2013-03-27 03:57:00,32.0,28.0,30.15,SW,235,1.2,0.0,85,0.00,BKN,OVC,0.00,0.0,WeatherDisplay:10.37,2013-03-27 03:57:00,
2013-03-27 04:00:00,32.0,28.0,30.15,SW,224,3.5,0.0,85,0.00,BKN,OVC,0.00,0.0,WeatherDisplay:10.37,2013-03-27 04:00:00,
2013-03-27 04:05:00,32.0,28.0,30.15,WSW,257,2.3,2.3,85,0.00,OVC,,0.00,0.0,WeatherDisplay:10.37,2013-03-27 04:05:00,
2013-03-27 04:10:00,31.9,27.9,30.15,SW,226,1.2,1.2,85,0.00,OVC,,0.00,0.0,WeatherDisplay:10.37,2013-03-27 04:10:00,
2013-03-27 04:15:00,31.8,27.8,30.15,NW,324,1.2,1.2,85,0.00,OVC,,0.00,0.0,WeatherDisplay:10.37,2013-03-27 04:15:00,
2013-03-27 04:20:00,31.6,27.6,30.15,WNW,293,1.2,1.2,85,0.00,OVC,,0.00,0.0,WeatherDisplay:10.37,2013-03-27 04:20:00,
2013-03-27 04:25:00,31.6,27.3,30.15,SW,224,0.0,0.0,84,0.00,OVC,,0.00,0.0,WeatherDisplay:10.37,2013-03-27 04:25:00,
2013-03-27 04:30:00,31.4,27.1,30.15,SW,225,0.0,0.0,84,0.00,OVC,,0.00,0.0,WeatherDisplay:10.37,2013-03-27 04:30:00,
2013-03-27 04:35:00,31.4,27.1,30.15,West,277,2.3,2.3,84,0.00,BKN,OVC,0.00,0.0,WeatherDisplay:10.37,2013-03-27 04:35:00,
2013-03-27 04:40:00,31.6,27.3,30.15,SSW,198,1.2,1.2,84,0.00,BKN,OVC,0.00,0.0,WeatherDisplay:10.37,2013-03-27 04:40:00,
2013-03-27 04:45:00,31.7,27.4,30.15,East,81,1.2,1.2,84,0.00,BKN,OVC,0.00,0.0,WeatherDisplay:10.37,2013-03-27 04:45:00,
2013-03-27 04:50:00,31.6,27.3,30.15,North,350,1.2,1.2,84,0.00,BKN,OVC,0.00,0.0,WeatherDisplay:10.37,2013-03-27 04:50:00,
2013-03-27 04:55:00,31.6,27.3,30.15,NNW,339,1.2,1.2,84,0.00,BKN,OVC,0.00,0.0,WeatherDisplay:10.37,2013-03-27 04:55:00,
2013-03-27 05:01:00,31.2,26.6,30.15,WSW,240,1.2,0.0,83,0.00,BKN,OVC,0.00,0.0,WeatherDisplay:10.37,2013-03-27 05:01:00,
2013-03-27 05:06:00,30.9,26.3,30.15,West,270,0.0,0.0,83,0.00,BKN,OVC,0.00,0.0,WeatherDisplay:10.37,2013-03-27 05:06:00,
2013-03-27 05:12:00,30.9,26.3,30.15,West,270,0.0,0.0,83,0.00,BKN,OVC,0.00,0.0,WeatherDisplay:10.37,2013-03-27 05:12:00,
2013-03-27 05:17:00,30.9,26.3,30.15,North,0,0.0,0.0,83,0.00,BKN,OVC,0.00,0.0,WeatherDisplay:10.37,2013-03-27 05:17:00,
2013-03-27 05:22:00,30.9,26.3,30.15,North,0,0.0,0.0,83,0.00,BKN,OVC,0.00,0.0,WeatherDisplay:10.37,2013-03-27 05:22:00,
2013-03-27 05:27:00,30.9,26.3,30.15,North,0,0.0,0.0,83,0.00,BKN,OVC,0.00,0.0,WeatherDisplay:10.37,2013-03-27 05:27:00,
2013-03-27 05:32:00,30.9,26.3,30.15,North,0,0.0,0.0,83,0.00,BKN,OVC,0.00,0.0,WeatherDisplay:10.37,2013-03-27 05:32:00,
2013-03-27 05:38:00,30.9,26.3,30.15,North,0,0.0,0.0,83,0.00,BKN,OVC,0.00,0.0,WeatherDisplay:10.37,2013-03-27 05:38:00,
2013-03-27 05:44:00,30.9,26.3,30.15,North,0,0.0,0.0,83,0.00,BKN,OVC,0.00,0.0,WeatherDisplay:10.37,2013-03-27 05:44:00,
2013-03-27 05:49:00,30.9,26.3,30.15,North,0,0.0,0.0,83,0.00,BKN,OVC,0.00,0.0,WeatherDisplay:10.37,2013-03-27 05:49:00,
2013-03-27 05:54:00,30.9,26.3,30.15,North,0,0.0,0.0,83,0.00,BKN,OVC,0.00,0.0,WeatherDisplay:10.37,2013-03-27 05:54:00,
2013-03-27 06:00:00,30.9,26.3,30.15,North,1,0.0,0.0,83,0.00,BKN,OVC,0.00,0.0,WeatherDisplay:10.37,2013-03-27 06:00:00,
2013-03-27 06:05:00,30.9,26.3,30.15,North,1,0.0,0.0,83,0.00,BKN,OVC,0.00,0.0,WeatherDisplay:10.37,2013-03-27 06:05:00,
2013-03-27 06:10:00,30.9,26.3,30.15,North,3,0.0,0.0,83,0.00,BKN,OVC,0.00,0.0,WeatherDisplay:10.37,2013-03-27 06:10:00,
2013-03-27 06:16:00,30.9,26.3,30.15,North,0,0.0,0.0,83,0.00,BKN,OVC,0.00,0.0,WeatherDisplay:10.37,2013-03-27 06:16:00,
2013-03-27 06:21:00,30.9,26.3,30.15,North,0,0.0,0.0,83,0.00,BKN,OVC,0.00,0.0,WeatherDisplay:10.37,2013-03-27 06:21:00,
2013-03-27 06:26:00,30.9,26.3,30.15,North,0,0.0,0.0,83,0.00,BKN,OVC,0.00,0.0,WeatherDisplay:10.37,2013-03-27 06:26:00,
2013-03-27 06:31:00,30.9,26.3,30.15,North,0,0.0,0.0,83,0.00,BKN,OVC,0.00,0.0,WeatherDisplay:10.37,2013-03-27 06:31:00,
2013-03-27 06:37:00,30.9,26.3,30.15,North,0,0.0,0.0,83,0.00,BKN,OVC,0.00,0.0,WeatherDisplay:10.37,2013-03-27 06:37:00,
2013-03-27 06:42:00,30.9,26.3,30.15,North,0,0.0,0.0,83,0.00,BKN,OVC,0.00,0.0,WeatherDisplay:10.37,2013-03-27 06:42:00,
2013-03-27 06:48:00,30.9,26.3,30.15,North,0,0.0,0.0,83,0.00,SCT,OVC,0.00,0.0,WeatherDisplay:10.37,2013-03-27 06:48:00,
2013-03-27 06:53:00,30.9,26.3,30.15,North,0,0.0,0.0,83,0.00,SCT,OVC,0.00,0.0,WeatherDisplay:10.37,2013-03-27 06:53:00,
2013-03-27 06:58:00,30.9,26.3,30.15,North,0,0.0,0.0,83,0.00,SCT,OVC,0.00,0.0,WeatherDisplay:10.37,2013-03-27 06:58:00,
2013-03-27 07:03:00,30.9,26.3,30.15,North,0,0.0,0.0,83,0.00,BKN,OVC,0.00,0.0,WeatherDisplay:10.37,2013-03-27 07:03:00,
2013-03-27 07:08:00,33.0,28.4,30.15,SE,138,0.0,0.0,83,0.00,BKN,OVC,0.00,0.0,WeatherDisplay:10.37,2013-03-27 07:08:00,
2013-03-27 07:13:00,33.0,28.4,30.15,NNW,342,1.2,1.2,83,0.00,BKN,OVC,0.00,0.0,WeatherDisplay:10.37,2013-03-27 07:13:00,
2013-03-27 07:18:00,33.2,28.3,30.15,SW,235,1.2,1.2,82,0.00,BKN,OVC,0.00,0.0,WeatherDisplay:10.37,2013-03-27 07:18:00,
2013-03-27 07:47:00,34.1,28.6,30.14,West,260,1.2,0.0,80,0.00,BKN,OVC,0.00,0.0,WeatherDisplay:10.37,2013-03-27 07:47:00,
2013-03-27 07:52:00,34.4,28.9,30.14,SE,139,2.3,2.3,80,0.00,BKN,OVC,0.00,0.0,WeatherDisplay:10.37,2013-03-27 07:52:00,
2013-03-27 07:57:00,34.6,28.8,30.14,SW,225,3.5,3.5,79,0.00,BKN,OVC,0.00,0.0,WeatherDisplay:10.37,2013-03-27 07:57:00,
2013-03-27 08:02:00,34.8,28.6,30.14,SE,132,3.0,3.0,78,0.00,BKN,OVC,0.00,0.0,WeatherDisplay:10.37,2013-03-27 08:02:00,
2013-03-27 08:07:00,34.8,28.6,30.14,WNW,296,2.3,2.3,78,0.00,BKN,OVC,0.00,0.0,WeatherDisplay:10.37,2013-03-27 08:07:00,
2013-03-27 08:13:00,34.5,28.3,30.14,SE,135,2.3,2.3,78,0.00,BKN,OVC,0.00,0.0,WeatherDisplay:10.37,2013-03-27 08:13:00,
2013-03-27 08:19:00,34.4,28.6,30.14,WSW,243,1.0,0.0,79,0.00,BKN,OVC,0.00,0.0,WeatherDisplay:10.37,2013-03-27 08:19:00,
2013-03-27 08:24:00,34.3,28.5,30.14,SE,127,1.2,1.2,79,0.00,BKN,OVC,0.00,0.0,WeatherDisplay:10.37,2013-03-27 08:24:00,
2013-03-27 08:29:00,34.4,28.6,30.15,SSW,192,1.2,0.0,79,0.00,BKN,OVC,0.00,0.0,WeatherDisplay:10.37,2013-03-27 08:29:00,
2013-03-27 08:35:00,34.5,28.7,30.15,SSW,206,0.0,2.0,79,0.00,BKN,OVC,0.00,0.0,WeatherDisplay:10.37,2013-03-27 08:35:00,
2013-03-27 08:40:00,34.6,28.8,30.15,WNW,290,1.2,1.2,79,0.00,BKN,OVC,0.00,0.0,WeatherDisplay:10.37,2013-03-27 08:40:00,
2013-03-27 08:45:00,34.7,28.5,30.15,ESE,113,1.2,1.2,78,0.00,BKN,OVC,0.00,0.0,WeatherDisplay:10.37,2013-03-27 08:45:00,
2013-03-27 08:50:00,34.7,28.9,30.15,ESE,113,2.3,2.3,79,0.00,BKN,OVC,0.00,0.0,WeatherDisplay:10.37,2013-03-27 08:50:00,
2013-03-27 08:57:00,34.9,29.0,30.15,East,98,2.3,2.3,79,0.00,BKN,OVC,0.00,0.0,WeatherDisplay:10.37,2013-03-27 08:57:00,
2013-03-27 09:02:00,35.6,30.0,30.15,SSE,162,2.3,2.3,80,0.00,BKN,OVC,0.00,0.0,WeatherDisplay:10.37,2013-03-27 09:02:00,
2013-03-27 09:09:00,36.7,30.5,30.15,West,274,1.2,1.2,78,0.00,BKN,OVC,0.00,0.0,WeatherDisplay:10.37,2013-03-27 09:09:00,
2013-03-27 09:14:00,36.9,30.4,30.15,West,259,1.2,1.2,77,0.00,BKN,OVC,0.00,0.0,WeatherDisplay:10.37,2013-03-27 09:14:00,
2013-03-27 09:19:00,37.4,30.5,30.15,WSW,250,2.3,2.3,76,0.00,SCT,OVC,0.00,0.0,WeatherDisplay:10.37,2013-03-27 09:19:00,
2013-03-27 09:24:00,37.6,30.7,30.15,West,269,2.3,2.3,76,0.00,SCT,OVC,0.00,0.0,WeatherDisplay:10.37,2013-03-27 09:24:00,
2013-03-27 09:29:00,37.6,30.4,30.15,East,82,2.3,2.3,75,0.00,SCT,OVC,0.00,0.0,WeatherDisplay:10.37,2013-03-27 09:29:00,
2013-03-27 09:34:00,37.1,29.9,30.15,WSW,244,3.5,3.5,75,0.00,SCT,OVC,0.00,0.0,WeatherDisplay:10.37,2013-03-27 09:34:00,
2013-03-27 09:39:00,37.1,30.6,30.15,South,190,3.5,3.5,77,0.00,SCT,OVC,0.00,0.0,WeatherDisplay:10.37,2013-03-27 09:39:00,
2013-03-27 09:44:00,37.2,30.3,30.15,WSW,248,3.5,3.5,76,0.00,SCT,OVC,0.00,0.0,WeatherDisplay:10.37,2013-03-27 09:44:00,
2013-03-27 09:49:00,37.2,30.3,30.15,South,179,1.2,1.2,76,0.00,SCT,OVC,0.00,0.0,WeatherDisplay:10.37,2013-03-27 09:49:00,
2013-03-27 09:54:00,37.6,30.4,30.15,SSE,156,3.5,3.5,75,0.00,SCT,OVC,0.00,0.0,WeatherDisplay:10.37,2013-03-27 09:54:00,
2013-03-27 09:59:00,37.9,30.4,30.15,WNW,284,3.5,3.5,74,0.00,SCT,OVC,0.00,0.0,WeatherDisplay:10.37,2013-03-27 09:59:00,
2013-03-27 10:04:00,38.1,30.5,30.15,WSW,252,3.5,3.5,74,0.00,BKN,OVC,0.00,0.0,WeatherDisplay:10.37,2013-03-27 10:04:00,
2013-03-27 10:09:00,37.9,29.7,30.15,West,260,3.5,3.5,72,0.00,BKN,OVC,0.00,0.0,WeatherDisplay:10.37,2013-03-27 10:09:00,
2013-03-27 10:14:00,37.7,29.5,30.15,SE,129,3.5,3.5,72,0.00,BKN,OVC,0.00,0.0,WeatherDisplay:10.37,2013-03-27 10:14:00,
2013-03-27 10:19:00,37.9,29.7,30.15,WSW,252,2.3,2.3,72,0.00,BKN,OVC,0.00,0.0,WeatherDisplay:10.37,2013-03-27 10:19:00,
2013-03-27 10:24:00,38.4,30.2,30.15,SW,231,3.5,3.5,72,0.00,BKN,OVC,0.00,0.0,WeatherDisplay:10.37,2013-03-27 10:24:00,
2013-03-27 10:29:00,38.3,30.1,30.14,SW,218,3.5,3.5,72,0.00,BKN,OVC,0.00,0.0,WeatherDisplay:10.37,2013-03-27 10:29:00,
2013-03-27 10:34:00,38.7,30.4,30.14,SW,224,3.5,3.5,72,0.00,BKN,OVC,0.00,0.0,WeatherDisplay:10.37,2013-03-27 10:34:00,
2013-03-27 10:39:00,39.6,31.3,30.14,West,267,3.5,3.5,72,0.00,BKN,OVC,0.00,0.0,WeatherDisplay:10.37,2013-03-27 10:39:00,
2013-03-27 10:44:00,40.2,31.5,30.14,SE,135,3.5,3.5,71,0.01,RA,OVC,0.01,0.0,WeatherDisplay:10.37,2013-03-27 10:44:00,
2013-03-27 10:49:00,40.6,31.2,30.14,ENE,75,2.3,2.3,69,0.01,RA,OVC,0.01,0.0,WeatherDisplay:10.37,2013-03-27 10:49:00,
2013-03-27 10:54:00,41.1,31.7,30.14,WSW,240,2.3,2.3,69,0.01,SCT,OVC,0.01,0.0,WeatherDisplay:10.37,2013-03-27 10:54:00,
2013-03-27 10:59:00,40.8,30.3,30.14,West,278,3.5,3.5,66,0.01,SCT,OVC,0.01,0.0,WeatherDisplay:10.37,2013-03-27 10:59:00,
2013-03-27 11:04:00,40.7,30.6,30.14,SW,235,4.0,4.0,67,0.01,BKN,OVC,0.01,0.0,WeatherDisplay:10.37,2013-03-27 11:04:00,
2013-03-27 11:09:00,41.5,31.0,30.14,West,262,3.5,3.5,66,0.01,BKN,OVC,0.01,0.0,WeatherDisplay:10.37,2013-03-27 11:09:00,
2013-03-27 11:14:00,41.3,30.8,30.14,West,270,3.5,3.5,66,0.01,BKN,OVC,0.01,0.0,WeatherDisplay:10.37,2013-03-27 11:14:00,
2013-03-27 11:19:00,40.5,30.0,30.14,WSW,257,3.5,3.5,66,0.01,BKN,OVC,0.01,0.0,WeatherDisplay:10.37,2013-03-27 11:19:00,
2013-03-27 11:24:00,40.0,29.9,30.14,SSW,205,5.8,5.8,67,0.01,BKN,OVC,0.01,0.0,WeatherDisplay:10.37,2013-03-27 11:24:00,
2013-03-27 11:29:00,39.6,30.3,30.14,West,267,3.5,3.5,69,0.01,BKN,OVC,0.01,0.0,WeatherDisplay:10.37,2013-03-27 11:29:00,
2013-03-27 11:34:00,39.5,31.6,30.14,SSW,194,1.0,1.0,73,0.01,SCT,OVC,0.01,0.0,WeatherDisplay:10.37,2013-03-27 11:34:00,
2013-03-27 11:40:00,39.7,31.1,30.14,NW,316,3.5,3.5,71,0.01,SCT,OVC,0.01,0.0,WeatherDisplay:10.37,2013-03-27 11:40:00,
2013-03-27 11:45:00,40.1,31.1,30.13,West,278,3.5,3.5,70,0.00,SCT,OVC,0.01,0.0,WeatherDisplay:10.37,2013-03-27 11:45:00,
2013-03-27 11:50:00,40.1,30.0,30.13,WSW,249,1.0,6.0,67,0.00,SCT,OVC,0.01,0.0,WeatherDisplay:10.37,2013-03-27 11:50:00,
2013-03-27 12:00:00,41.2,30.7,30.13,WSW,258,2.0,4.0,66,0.00,SCT,OVC,0.01,0.0,WeatherDisplay:10.37,2013-03-27 12:00:00,
2013-03-27 12:05:00,40.2,31.2,30.14,WSW,257,2.0,6.0,70,0.00,FEW,OVC,0.01,0.0,WeatherDisplay:10.37,2013-03-27 12:05:00,
2013-03-27 12:10:00,38.0,31.1,30.14,West,275,2.3,2.3,76,0.00,FEW,OVC,0.01,0.0,WeatherDisplay:10.37,2013-03-27 12:10:00,
2013-03-27 12:15:00,38.0,32.7,30.13,SSE,161,3.5,3.5,81,0.00,FEW,OVC,0.01,0.0,WeatherDisplay:10.37,2013-03-27 12:15:00,
2013-03-27 12:20:00,39.4,34.1,30.13,NW,308,2.3,2.3,81,0.00,FEW,OVC,0.01,0.0,WeatherDisplay:10.37,2013-03-27 12:20:00,
2013-03-27 12:25:00,40.2,33.2,30.13,NW,312,3.5,3.5,76,0.00,FEW,OVC,0.01,0.0,WeatherDisplay:10.37,2013-03-27 12:25:00,
2013-03-27 12:30:00,40.8,32.8,30.13,SW,218,3.5,3.5,73,0.00,FEW,OVC,0.01,0.0,WeatherDisplay:10.37,2013-03-27 12:30:00,
2013-03-27 13:06:00,41.1,30.6,30.12,West,270,2.3,2.3,66,0.00,SCT,OVC,0.01,0.0,WeatherDisplay:10.37,2013-03-27 13:06:00,
2013-03-27 13:11:00,40.6,30.5,30.12,SSW,211,3.5,3.5,67,0.00,SCT,OVC,0.01,0.0,WeatherDisplay:10.37,2013-03-27 13:11:00,
2013-03-27 13:17:00,40.7,30.6,30.12,North,358,4.6,4.6,67,0.00,SCT,OVC,0.01,0.0,WeatherDisplay:10.37,2013-03-27 13:17:00,
2013-03-27 13:22:00,40.7,30.6,30.12,WNW,283,3.5,3.5,67,0.00,SCT,OVC,0.01,0.0,WeatherDisplay:10.37,2013-03-27 13:22:00,
2013-03-27 13:27:00,40.1,29.6,30.12,South,181,5.8,5.8,66,0.00,SCT,OVC,0.01,0.0,WeatherDisplay:10.37,2013-03-27 13:27:00,
2013-03-27 13:32:00,40.2,30.5,30.12,West,264,4.6,4.6,68,0.00,BKN,OVC,0.01,0.0,WeatherDisplay:10.37,2013-03-27 13:32:00,
2013-03-27 13:37:00,40.0,29.9,30.12,SSE,163,3.5,3.5,67,0.00,BKN,OVC,0.01,0.0,WeatherDisplay:10.37,2013-03-27 13:37:00,
2013-03-27 13:43:00,40.1,30.7,30.12,SSW,212,1.2,1.2,69,0.00,BKN,OVC,0.01,0.0,WeatherDisplay:10.37,2013-03-27 13:43:00,
2013-03-27 13:48:00,40.3,30.6,30.12,WSW,250,3.5,3.5,68,0.00,BKN,OVC,0.01,0.0,WeatherDisplay:10.37,2013-03-27 13:48:00,
2013-03-27 13:53:00,40.2,30.5,30.12,SE,127,2.3,2.3,68,0.00,BKN,OVC,0.01,0.0,WeatherDisplay:10.37,2013-03-27 13:53:00,
2013-03-27 13:58:00,40.2,30.5,30.12,SW,222,3.5,3.5,68,0.00,BKN,OVC,0.01,0.0,WeatherDisplay:10.37,2013-03-27 13:58:00,
2013-03-27 14:03:00,40.0,30.3,30.11,West,278,2.3,2.3,68,0.00,BKN,OVC,0.01,0.0,WeatherDisplay:10.37,2013-03-27 14:03:00,
2013-03-27 14:23:00,39.5,30.5,30.12,WSW,256,3.5,3.5,70,0.00,BKN,OVC,0.01,0.0,WeatherDisplay:10.37,2013-03-27 14:23:00,
2013-03-27 14:28:00,39.3,30.0,30.12,WNW,289,5.8,5.8,69,0.00,BKN,OVC,0.01,0.0,WeatherDisplay:10.37,2013-03-27 14:28:00,
2013-03-27 14:33:00,39.2,29.5,30.12,WSW,257,4.6,4.6,68,0.00,BKN,OVC,0.01,0.0,WeatherDisplay:10.37,2013-03-27 14:33:00,
2013-03-27 14:38:00,39.1,29.8,30.12,South,176,3.5,3.5,69,0.00,BKN,OVC,0.01,0.0,WeatherDisplay:10.37,2013-03-27 14:38:00,
2013-03-27 14:43:00,39.1,29.4,30.12,ESE,109,2.3,2.3,68,0.00,BKN,OVC,0.01,0.0,WeatherDisplay:10.37,2013-03-27 14:43:00,
2013-03-27 14:48:00,39.1,30.8,30.12,SE,132,2.0,2.0,72,0.00,BKN,OVC,0.01,0.0,WeatherDisplay:10.37,2013-03-27 14:48:00,
2013-03-27 14:53:00,38.8,31.6,30.12,NE,54,7.0,7.0,75,0.00,BKN,OVC,0.01,0.0,WeatherDisplay:10.37,2013-03-27 14:53:00,
2013-03-27 14:58:00,38.6,31.4,30.12,ESE,107,2.3,2.3,75,0.00,BKN,OVC,0.01,0.0,WeatherDisplay:10.37,2013-03-27 14:58:00,
2013-03-27 15:03:00,38.7,30.8,30.12,West,277,3.5,3.5,73,0.00,BKN,OVC,0.01,0.0,WeatherDisplay:10.37,2013-03-27 15:03:00,
2013-03-27 15:08:00,38.6,30.0,30.11,ESE,118,4.6,4.6,71,0.00,BKN,OVC,0.01,0.0,WeatherDisplay:10.37,2013-03-27 15:08:00,
2013-03-27 15:13:00,39.1,31.2,30.12,NW,308,3.5,3.5,73,0.00,BKN,OVC,0.01,0.0,WeatherDisplay:10.37,2013-03-27 15:13:00,
2013-03-27 15:18:00,39.0,32.1,30.12,SSE,161,2.3,2.3,76,0.00,SCT,OVC,0.01,0.0,WeatherDisplay:10.37,2013-03-27 15:18:00,
2013-03-27 15:23:00,37.7,32.1,30.12,NW,308,2.3,2.3,80,0.00,SCT,OVC,0.01,0.0,WeatherDisplay:10.37,2013-03-27 15:23:00,
2013-03-27 15:28:00,37.3,32.0,30.11,NE,50,1.2,1.2,81,0.00,SCT,OVC,0.01,0.0,WeatherDisplay:10.37,2013-03-27 15:28:00,
2013-03-27 15:33:00,37.3,31.4,30.11,South,188,3.5,0.0,79,0.00,BKN,OVC,0.01,0.0,WeatherDisplay:10.37,2013-03-27 15:33:00,
2013-03-27 15:38:00,37.9,31.3,30.11,South,191,1.2,1.2,77,0.00,BKN,OVC,0.01,0.0,WeatherDisplay:10.37,2013-03-27 15:38:00,
2013-03-27 15:43:00,39.0,32.1,30.11,WSW,255,1.2,1.2,76,0.00,BKN,OVC,0.01,0.0,WeatherDisplay:10.37,2013-03-27 15:43:00,
2013-03-27 15:48:00,39.9,31.9,30.11,North,354,2.3,2.3,73,0.00,BKN,OVC,0.01,0.0,WeatherDisplay:10.37,2013-03-27 15:48:00,
2013-03-27 15:54:00,39.7,31.4,30.11,ESE,108,4.0,4.0,72,0.00,BKN,OVC,0.01,0.0,WeatherDisplay:10.37,2013-03-27 15:54:00,
2013-03-27 15:59:00,38.2,32.3,30.12,SSW,205,2.3,2.3,79,0.00,BKN,OVC,0.01,0.0,WeatherDisplay:10.37,2013-03-27 15:59:00,
2013-03-27 16:04:00,37.1,32.4,30.12,ESE,122,1.0,0.0,83,0.00,BKN,OVC,0.01,0.0,WeatherDisplay:10.37,2013-03-27 16:04:00,
2013-03-27 16:09:00,36.8,32.1,30.12,WSW,255,3.5,3.5,83,0.00,BKN,OVC,0.01,0.0,WeatherDisplay:10.37,2013-03-27 16:09:00,
2013-03-27 16:14:00,36.8,32.1,30.12,WNW,290,1.2,1.2,83,0.00,BKN,OVC,0.01,0.0,WeatherDisplay:10.37,2013-03-27 16:14:00,
2013-03-27 16:19:00,36.9,32.2,30.12,SW,229,2.3,2.3,83,0.00,BKN,OVC,0.01,0.0,WeatherDisplay:10.37,2013-03-27 16:19:00,
2013-03-27 16:24:00,37.1,32.1,30.12,West,273,0.0,0.0,82,0.00,BKN,OVC,0.01,0.0,WeatherDisplay:10.37,2013-03-27 16:24:00,
2013-03-27 16:29:00,37.3,32.0,30.12,ESE,114,2.3,2.3,81,0.00,BKN,OVC,0.01,0.0,WeatherDisplay:10.37,2013-03-27 16:29:00,
2013-03-27 16:34:00,37.6,32.0,30.12,SSE,152,2.3,2.3,80,0.00,BKN,OVC,0.01,0.0,WeatherDisplay:10.37,2013-03-27 16:34:00,
2013-03-27 16:39:00,38.0,31.7,30.12,SE,140,2.0,2.0,78,0.00,BKN,OVC,0.01,0.0,WeatherDisplay:10.37,2013-03-27 16:39:00,
2013-03-27 16:44:00,38.6,30.7,30.12,SE,130,4.6,4.6,73,0.00,BKN,OVC,0.01,0.0,WeatherDisplay:10.37,2013-03-27 16:44:00,
2013-03-27 16:49:00,38.8,29.5,30.12,SE,127,3.5,3.5,69,0.00,BKN,OVC,0.01,0.0,WeatherDisplay:10.37,2013-03-27 16:49:00,
2013-03-27 16:54:00,38.8,28.8,30.12,WSW,256,2.3,2.3,67,0.00,BKN,OVC,0.01,0.0,WeatherDisplay:10.37,2013-03-27 16:54:00,
2013-03-27 16:59:00,38.8,28.8,30.12,ENE,68,3.5,3.5,67,0.00,BKN,OVC,0.01,0.0,WeatherDisplay:10.37,2013-03-27 16:59:00,
2013-03-27 17:04:00,39.0,28.6,30.12,SSW,203,1.2,1.4,66,0.00,FEW,OVC,0.01,0.0,WeatherDisplay:10.37,2013-03-27 17:04:00,
2013-03-27 17:09:00,39.0,28.2,30.12,WSW,238,3.5,3.5,65,0.01,RA,OVC,0.02,0.0,WeatherDisplay:10.37,2013-03-27 17:09:00,
2013-03-27 17:14:00,39.0,27.8,30.12,SE,136,1.2,1.2,64,0.01,RA,OVC,0.02,0.0,WeatherDisplay:10.37,2013-03-27 17:14:00,
2013-03-27 17:19:00,39.1,27.9,30.12,WNW,298,2.3,2.3,64,0.01,FEW,OVC,0.02,0.0,WeatherDisplay:10.37,2013-03-27 17:19:00,
2013-03-27 17:24:00,39.2,27.7,30.12,NNW,335,1.2,1.2,63,0.01,FEW,OVC,0.02,0.0,WeatherDisplay:10.37,2013-03-27 17:24:00,
2013-03-27 17:29:00,39.1,27.6,30.12,South,169,1.2,1.2,63,0.01,FEW,OVC,0.02,0.0,WeatherDisplay:10.37,2013-03-27 17:29:00,
2013-03-27 17:34:00,39.0,27.5,30.12,NW,309,2.3,2.3,63,0.01,SCT,OVC,0.02,0.0,WeatherDisplay:10.37,2013-03-27 17:34:00,
2013-03-27 17:39:00,39.3,27.7,30.12,SW,225,2.3,2.3,63,0.01,SCT,OVC,0.02,0.0,WeatherDisplay:10.37,2013-03-27 17:39:00,
2013-03-27 17:44:00,39.4,27.8,30.12,WSW,252,1.2,1.2,63,0.01,SCT,OVC,0.02,0.0,WeatherDisplay:10.37,2013-03-27 17:44:00,
2013-03-27 17:49:00,39.2,27.7,30.12,NE,40,4.6,4.6,63,0.01,SCT,OVC,0.02,0.0,WeatherDisplay:10.37,2013-03-27 17:49:00,
2013-03-27 17:54:00,38.6,27.5,30.12,SE,143,2.3,2.3,64,0.01,SCT,OVC,0.02,0.0,WeatherDisplay:10.37,2013-03-27 17:54:00,
2013-03-27 17:59:00,37.9,27.5,30.12,SE,139,1.2,1.2,66,0.01,SCT,OVC,0.02,0.0,WeatherDisplay:10.37,2013-03-27 17:59:00,
2013-03-27 18:04:00,37.3,27.3,30.13,WNW,295,1.0,0.0,67,0.01,FEW,OVC,0.02,0.0,WeatherDisplay:10.37,2013-03-27 18:04:00,
2013-03-27 18:09:00,36.8,26.9,30.12,SSE,158,1.2,1.2,67,0.00,FEW,OVC,0.02,0.0,WeatherDisplay:10.37,2013-03-27 18:09:00,
2013-03-27 18:14:00,36.4,27.2,30.12,WNW,295,1.2,1.2,69,0.00,FEW,OVC,0.02,0.0,WeatherDisplay:10.37,2013-03-27 18:14:00,
2013-03-27 18:19:00,36.0,27.2,30.13,WSW,248,0.0,0.0,70,0.00,FEW,OVC,0.02,0.0,WeatherDisplay:10.37,2013-03-27 18:19:00,
2013-03-27 18:24:00,35.7,27.2,30.13,SSE,165,1.2,1.2,71,0.00,FEW,OVC,0.02,0.0,WeatherDisplay:10.37,2013-03-27 18:24:00,
2013-03-27 18:29:00,35.4,27.3,30.13,SSW,211,1.2,0.0,72,0.00,FEW,OVC,0.02,0.0,WeatherDisplay:10.37,2013-03-27 18:29:00,
2013-03-27 18:34:00,35.2,27.4,30.13,SE,143,1.2,0.0,73,0.00,FEW,OVC,0.02,0.0,WeatherDisplay:10.37,2013-03-27 18:34:00,
2013-03-27 18:39:00,34.9,27.1,30.13,SE,140,0.0,0.1,73,0.00,FEW,OVC,0.02,0.0,WeatherDisplay:10.37,2013-03-27 18:39:00,
2013-03-27 18:44:00,34.7,27.3,30.13,West,271,3.5,3.5,74,0.00,FEW,OVC,0.02,0.0,WeatherDisplay:10.37,2013-03-27 18:44:00,
2013-03-27 18:49:00,34.5,27.1,30.13,West,259,0.0,0.0,74,0.00,FEW,OVC,0.02,0.0,WeatherDisplay:10.37,2013-03-27 18:49:00,
2013-03-27 18:54:00,34.5,27.4,30.13,SE,126,0.0,0.0,75,0.00,FEW,OVC,0.02,0.0,WeatherDisplay:10.37,2013-03-27 18:54:00,
2013-03-27 18:59:00,34.6,27.5,30.13,WSW,243,1.2,1.2,75,0.00,FEW,OVC,0.02,0.0,WeatherDisplay:10.37,2013-03-27 18:59:00,
2013-03-27 19:04:00,34.7,27.6,30.13,NW,311,1.2,0.0,75,0.00,FEW,OVC,0.02,0.0,WeatherDisplay:10.37,2013-03-27 19:04:00,
2013-03-27 19:09:00,34.9,28.1,30.14,NNE,26,1.2,1.2,76,0.00,FEW,OVC,0.02,0.0,WeatherDisplay:10.37,2013-03-27 19:09:00,
2013-03-27 19:14:00,35.0,28.8,30.14,WNW,298,4.6,4.6,78,0.00,FEW,OVC,0.02,0.0,WeatherDisplay:10.37,2013-03-27 19:14:00,
2013-03-27 19:19:00,34.5,30.2,30.14,WSW,246,2.3,2.3,84,0.00,FEW,OVC,0.02,0.0,WeatherDisplay:10.37,2013-03-27 19:19:00,
2013-03-27 19:24:00,33.9,30.2,30.14,SW,218,2.3,2.3,86,0.00,FEW,OVC,0.02,0.0,WeatherDisplay:10.37,2013-03-27 19:24:00,
2013-03-27 19:29:00,33.3,29.6,30.14,SW,229,1.2,1.2,86,0.00,FEW,OVC,0.02,0.0,WeatherDisplay:10.37,2013-03-27 19:29:00,
2013-03-27 19:34:00,33.1,29.7,30.14,SE,145,0.0,0.0,87,0.00,FEW,OVC,0.02,0.0,WeatherDisplay:10.37,2013-03-27 19:34:00,
2013-03-27 19:39:00,33.1,29.7,30.14,SE,141,0.0,0.0,87,0.00,FEW,OVC,0.02,0.0,WeatherDisplay:10.37,2013-03-27 19:39:00,
2013-03-27 19:44:00,33.2,30.0,30.14,SE,145,0.0,0.0,88,0.00,FEW,OVC,0.02,0.0,WeatherDisplay:10.37,2013-03-27 19:44:00,
2013-03-27 19:49:00,33.4,29.9,30.14,SE,145,0.0,0.1,87,0.00,FEW,OVC,0.02,0.0,WeatherDisplay:10.37,2013-03-27 19:49:00,
2013-03-27 19:54:00,33.5,29.8,30.14,WSW,239,1.2,1.2,86,0.00,FEW,OVC,0.02,0.0,WeatherDisplay:10.37,2013-03-27 19:54:00,
2013-03-27 19:59:00,33.7,29.1,30.14,NW,308,1.2,1.2,83,0.00,FEW,OVC,0.02,0.0,WeatherDisplay:10.37,2013-03-27 19:59:00,
2013-03-27 20:04:00,33.9,28.4,30.14,South,188,0.0,0.0,80,0.00,CLR,OVC,0.02,0.0,WeatherDisplay:10.37,2013-03-27 20:04:00,
2013-03-27 20:09:00,34.0,28.2,30.14,West,260,0.0,0.1,79,0.00,CLR,OVC,0.02,0.0,WeatherDisplay:10.37,2013-03-27 20:09:00,
2013-03-27 20:14:00,34.0,27.9,30.14,WSW,246,0.0,0.0,78,0.00,CLR,OVC,0.02,0.0,WeatherDisplay:10.37,2013-03-27 20:14:00,
2013-03-27 20:19:00,33.9,27.8,30.14,West,260,0.0,0.4,78,0.00,CLR,OVC,0.02,0.0,WeatherDisplay:10.37,2013-03-27 20:19:00,
2013-03-27 20:24:00,33.8,27.7,30.14,WSW,245,0.0,0.0,78,0.00,CLR,OVC,0.02,0.0,WeatherDisplay:10.37,2013-03-27 20:24:00,
2013-03-27 20:29:00,33.6,27.5,30.14,West,274,0.0,0.0,78,0.00,CLR,OVC,0.02,0.0,WeatherDisplay:10.37,2013-03-27 20:29:00,
2013-03-27 20:34:00,33.5,27.4,30.14,SE,124,0.0,0.0,78,0.00,FEW,OVC,0.02,0.0,WeatherDisplay:10.37,2013-03-27 20:34:00,
2013-03-27 20:39:00,33.3,27.2,30.14,SSW,210,0.0,0.1,78,0.00,FEW,OVC,0.02,0.0,WeatherDisplay:10.37,2013-03-27 20:39:00,
2013-03-27 20:44:00,33.1,27.0,30.14,South,187,1.2,0.0,78,0.00,FEW,OVC,0.02,0.0,WeatherDisplay:10.37,2013-03-27 20:44:00,
2013-03-27 20:49:00,32.9,26.8,30.14,ESE,117,0.0,0.0,78,0.00,FEW,OVC,0.02,0.0,WeatherDisplay:10.37,2013-03-27 20:49:00,
2013-03-27 20:54:00,32.7,26.9,30.14,SE,134,1.2,0.0,79,0.00,FEW,OVC,0.02,0.0,WeatherDisplay:10.37,2013-03-27 20:54:00,
2013-03-27 20:59:00,32.5,26.7,30.14,SSE,159,0.0,0.0,79,0.00,FEW,OVC,0.02,0.0,WeatherDisplay:10.37,2013-03-27 20:59:00,
2013-03-27 21:04:00,32.3,26.5,30.14,NW,311,0.0,0.0,79,0.00,SCT,OVC,0.02,0.0,WeatherDisplay:10.37,2013-03-27 21:04:00,
2013-03-27 21:09:00,32.3,26.5,30.14,South,177,1.2,0.0,79,0.00,SCT,OVC,0.02,0.0,WeatherDisplay:10.37,2013-03-27 21:09:00,
2013-03-27 21:15:00,32.3,26.5,30.14,WNW,297,2.3,2.3,79,0.00,SCT,OVC,0.02,0.0,WeatherDisplay:10.37,2013-03-27 21:15:00,
2013-03-27 21:20:00,32.3,26.8,30.14,SSE,148,0.0,0.0,80,0.00,SCT,OVC,0.02,0.0,WeatherDisplay:10.37,2013-03-27 21:20:00,
2013-03-27 21:25:00,32.5,27.0,30.14,WNW,288,1.2,1.2,80,0.00,SCT,OVC,0.02,0.0,WeatherDisplay:10.37,2013-03-27 21:25:00,
2013-03-27 21:30:00,32.8,27.3,30.14,West,262,2.3,2.3,80,0.00,SCT,OVC,0.02,0.0,WeatherDisplay:10.37,2013-03-27 21:30:00,
2013-03-27 21:35:00,33.1,27.6,30.13,WSW,252,2.3,0.0,80,0.00,FEW,OVC,0.02,0.0,WeatherDisplay:10.37,2013-03-27 21:35:00,
2013-03-27 21:40:00,33.1,27.9,30.13,West,280,1.2,0.0,81,0.00,FEW,OVC,0.02,0.0,WeatherDisplay:10.37,2013-03-27 21:40:00,
2013-03-27 21:45:00,33.2,27.7,30.13,WSW,243,0.0,1.0,80,0.00,FEW,OVC,0.02,0.0,WeatherDisplay:10.37,2013-03-27 21:45:00,
2013-03-27 21:50:00,33.2,27.7,30.13,SW,232,0.0,1.0,80,0.00,FEW,OVC,0.02,0.0,WeatherDisplay:10.37,2013-03-27 21:50:00,
2013-03-27 21:55:00,33.2,27.4,30.13,SSW,210,1.2,1.2,79,0.00,FEW,OVC,0.02,0.0,WeatherDisplay:10.37,2013-03-27 21:55:00,
2013-03-27 22:00:00,33.3,27.5,30.13,NNW,339,2.3,2.3,79,0.00,FEW,OVC,0.02,0.0,WeatherDisplay:10.37,2013-03-27 22:00:00,
2013-03-27 22:05:00,33.4,27.6,30.13,WNW,288,0.0,2.0,79,0.00,SCT,OVC,0.02,0.0,WeatherDisplay:10.37,2013-03-27 22:05:00,
2013-03-27 22:10:00,33.3,27.5,30.13,South,172,0.0,0.0,79,0.00,SCT,OVC,0.02,0.0,WeatherDisplay:10.37,2013-03-27 22:10:00,
2013-03-27 22:15:00,33.2,27.4,30.13,WSW,257,1.2,1.2,79,0.00,SCT,OVC,0.02,0.0,WeatherDisplay:10.37,2013-03-27 22:15:00,
2013-03-27 22:20:00,33.2,27.7,30.13,SSW,208,1.0,3.0,80,0.00,SCT,OVC,0.02,0.0,WeatherDisplay:10.37,2013-03-27 22:20:00,
2013-03-27 22:25:00,33.0,27.5,30.13,SW,220,0.0,3.0,80,0.00,SCT,OVC,0.02,0.0,WeatherDisplay:10.37,2013-03-27 22:25:00,
2013-03-27 22:30:00,32.9,27.4,30.13,SE,142,2.3,2.3,80,0.00,SCT,OVC,0.02,0.0,WeatherDisplay:10.37,2013-03-27 22:30:00,
2013-03-27 22:35:00,32.8,27.3,30.13,SE,130,0.0,2.0,80,0.00,BKN,OVC,0.02,0.0,WeatherDisplay:10.37,2013-03-27 22:35:00,
2013-03-27 22:40:00,32.7,27.2,30.13,NNW,339,1.2,1.2,80,0.00,BKN,OVC,0.02,0.0,WeatherDisplay:10.37,2013-03-27 22:40:00,
2013-03-27 22:45:00,32.8,27.3,30.13,NW,316,1.0,1.0,80,0.00,BKN,OVC,0.02,0.0,WeatherDisplay:10.37,2013-03-27 22:45:00,
2013-03-27 22:50:00,32.8,27.0,30.13,NNW,330,2.3,2.3,79,0.00,BKN,OVC,0.02,0.0,WeatherDisplay:10.37,2013-03-27 22:50:00,
2013-03-27 22:55:00,32.9,27.1,30.13,South,172,2.3,2.3,79,0.00,BKN,OVC,0.02,0.0,WeatherDisplay:10.37,2013-03-27 22:55:00,
2013-03-27 23:00:00,33.0,27.5,30.13,WNW,288,2.3,2.3,80,0.00,BKN,OVC,0.02,0.0,WeatherDisplay:10.37,2013-03-27 23:00:00,
2013-03-27 23:05:00,33.1,27.6,30.13,SW,225,0.0,1.0,80,0.00,BKN,OVC,0.02,0.0,WeatherDisplay:10.37,2013-03-27 23:05:00,
2013-03-27 23:10:00,33.1,27.6,30.13,WSW,246,1.2,0.0,80,0.00,BKN,OVC,0.02,0.0,WeatherDisplay:10.37,2013-03-27 23:10:00,
2013-03-27 23:15:00,33.1,27.3,30.13,WNW,294,1.2,1.2,79,0.00,BKN,OVC,0.02,0.0,WeatherDisplay:10.37,2013-03-27 23:15:00,
2013-03-27 23:20:00,33.1,27.6,30.13,WNW,297,1.2,1.2,80,0.00,BKN,OVC,0.02,0.0,WeatherDisplay:10.37,2013-03-27 23:20:00,
2013-03-27 23:25:00,33.3,27.8,30.13,WSW,256,1.2,1.2,80,0.00,BKN,OVC,0.02,0.0,WeatherDisplay:10.37,2013-03-27 23:25:00,
2013-03-27 23:30:00,33.5,27.7,30.13,SSW,193,1.2,1.2,79,0.00,BKN,OVC,0.02,0.0,WeatherDisplay:10.37,2013-03-27 23:30:00,
2013-03-27 23:35:00,33.7,27.9,30.13,NW,311,3.5,3.5,79,0.00,BKN,OVC,0.02,0.0,WeatherDisplay:10.37,2013-03-27 23:35:00,
2013-03-27 23:40:00,33.7,27.9,30.13,SW,215,2.3,2.3,79,0.00,BKN,OVC,0.02,0.0,WeatherDisplay:10.37,2013-03-27 23:40:00,
2013-03-27 23:45:00,33.9,28.1,30.13,SW,233,1.2,1.2,79,0.00,BKN,OVC,0.02,0.0,WeatherDisplay:10.37,2013-03-27 23:45:00,
2013-03-27 23:50:00,33.9,28.4,30.12,SW,214,2.3,2.3,80,0.00,BKN,OVC,0.02,0.0,WeatherDisplay:10.37,2013-03-27 23:50:00,
2013-03-27 23:55:00,33.8,28.3,30.13,SE,134,1.2,1.2,80,0.00,BKN,OVC,0.02,0.0,WeatherDisplay:10.37,2013-03-27 23:55:00,